HTMT

Mtwara Airport

Airport
ICAO code
HTMT
IATA Code
MYW
Summary
ICAO Region
AFI
ICAO Territory
Location

Mtwara, Mtwara Region

Serving
Mtwara
Elevation
371 ft
Coordinates
10° 20' 10" S , 40° 10' 55" E
KCC
Aw
Metar
Observation
HTMT 130500Z 18013KT 9999 FEW018 20/19 Q1018 NOSIG
Station
Mtwara
Date/Time
2022-08-13 05:00:00
Wind direction
180°
Wind speed
13 kts
Lowest cloud amount
few clouds
Temperature
20°C
Dew point
19°C
Humidity
93%
QNH
1018 hPa
Weather condition
n/a

Mtwara Airport is an airport in southern Tanzania serving the town of Mtwara.

Climatology

Tropical Savanna climate (Köppen climate classification Aw)

Runways

Designator Length Width Surface Rops
8/26 1163 30 GRE No/No
1/19 2259 30 ASP No/No

Airport map

Aerial View

SKYbrary Partners:

Safety knowledge contributed by: